Time;durP1;ratioP1;P1;durP2;ratioP2;P2;SDS_P1;SDS_P2;PMS_P1;PMS_P2;Temp;Humidity;BMP_temperature;BMP_pressure;BME280_temperature;BME280_humidity;BME280_pressure;Samples;Min_cycle;Max_cycle;Signal;HPM_P1;HPM_P2
2022/10/27 00:01:55;;;;;;;;;;;17.10;99.90;;;;;;5072852;28;19908;-43
2022/10/27 00:04:21;;;;;;;;;;;17.10;99.90;;;;;;5070058;28;19916;-43
2022/10/27 00:06:46;;;;;;;;;;;17.10;99.90;;;;;;5072977;28;19912;-45
2022/10/27 00:09:12;;;;;;;;;;;17.10;99.90;;;;;;5064296;28;20426;-44
2022/10/27 00:11:37;;;;;;;;;;;17.10;99.90;;;;;;5071802;28;19999;-43
2022/10/27 00:14:03;;;;;;;;;;;17.10;99.90;;;;;;5070462;28;19957;-43
2022/10/27 00:16:28;;;;;;;;;;;17.10;99.90;;;;;;5066008;28;19915;-41
2022/10/27 00:18:54;;;;;;;;;;;17.00;99.90;;;;;;5059072;28;20003;-41
2022/10/27 00:21:20;;;;;;;;;;;17.00;99.90;;;;;;5069875;28;19943;-35
2022/10/27 00:23:49;;;;;;;;;;;17.00;99.90;;;;;;5072374;28;19909;-33
2022/10/27 00:26:15;;;;;;;;;;;17.00;99.90;;;;;;5068752;28;20391;-37
2022/10/27 00:28:41;;;;;;;;;;;16.90;99.90;;;;;;5069620;28;20364;-34
2022/10/27 00:31:10;;;;;;;;;;;16.90;99.90;;;;;;5070078;28;19915;-43
2022/10/27 00:33:35;;;;;;;;;;;16.80;99.90;;;;;;5065455;28;20631;-36
2022/10/27 00:36:05;;;;;;;;;;;16.80;99.90;;;;;;5063069;28;20392;-35
2022/10/27 00:38:30;;;;;;;;;;;16.70;99.90;;;;;;5072305;28;19912;-35
2022/10/27 00:40:56;;;;;;;;;;;16.60;99.90;;;;;;5079098;28;19909;-33
2022/10/27 00:43:32;;;;;;;;;;;16.60;99.90;;;;;;5069530;28;19923;-38
2022/10/27 00:46:02;;;;;;;;;;;16.60;99.90;;;;;;5071564;28;20360;-38
2022/10/27 00:48:29;;;;;;;;;;;16.60;99.90;;;;;;5068415;28;19915;-43
2022/10/27 00:50:55;;;;;;;;;;;16.50;99.90;;;;;;5072616;28;19915;-35
2022/10/27 00:53:20;;;;;;;;;;;16.50;99.90;;;;;;5071294;28;20296;-36
2022/10/27 00:55:49;;;;;;;;;;;16.50;99.90;;;;;;5084318;28;20416;-30
2022/10/27 00:58:16;;;;;;;;;;;16.50;99.90;;;;;;5078331;28;20384;-53
2022/10/27 01:00:42;;;;;;;;;;;16.40;99.90;;;;;;5076169;28;19912;-43
2022/10/27 01:05:53;;;;;;;;;;;16.40;99.90;;;;;;5075195;28;19958;-43
2022/10/27 01:08:20;;;;;;;;;;;16.40;99.90;;;;;;5071200;28;19973;-41
2022/10/27 01:10:46;;;;;;;;;;;16.40;99.90;;;;;;5075756;28;19909;-39
2022/10/27 01:13:11;;;;;;;;;;;16.40;99.90;;;;;;5078406;28;19984;-58
2022/10/27 01:15:44;;;;;;;;;;;16.40;99.90;;;;;;5087041;28;19908;-41
2022/10/27 01:18:12;;;;;;;;;;;16.40;99.90;;;;;;5075845;28;20369;-41
2022/10/27 01:20:37;;;;;;;;;;;16.40;99.90;;;;;;5084940;28;19954;-40
2022/10/27 01:23:18;;;;;;;;;;;16.40;99.90;;;;;;5079363;28;19916;-42
2022/10/27 01:25:46;;;;;;;;;;;16.40;99.90;;;;;;5079033;28;19992;-41
2022/10/27 01:28:35;;;;;;;;;;;16.30;99.90;;;;;;5074416;28;20011;-40
2022/10/27 01:31:07;;;;;;;;;;;16.30;99.90;;;;;;5066793;28;19912;-43
2022/10/27 01:33:47;;;;;;;;;;;16.20;99.90;;;;;;5071133;28;19909;-45
2022/10/27 01:36:18;;;;;;;;;;;16.20;99.90;;;;;;5080900;28;19909;-40
2022/10/27 01:38:50;;;;;;;;;;;16.20;99.90;;;;;;5076234;28;19904;-35
2022/10/27 01:41:19;;;;;;;;;;;16.10;99.90;;;;;;5074676;28;20368;-34
2022/10/27 01:43:46;;;;;;;;;;;16.20;99.90;;;;;;5064041;28;19995;-34
2022/10/27 01:46:12;;;;;;;;;;;16.10;99.90;;;;;;5073174;28;20441;-36
2022/10/27 01:48:37;;;;;;;;;;;16.10;99.90;;;;;;5074282;28;20003;-31
2022/10/27 01:51:05;;;;;;;;;;;16.10;99.90;;;;;;5074598;28;19951;-49
2022/10/27 01:53:41;;;;;;;;;;;16.00;99.90;;;;;;5073771;28;19913;-34
2022/10/27 01:56:12;;;;;;;;;;;16.00;99.90;;;;;;5072802;28;19920;-32
2022/10/27 01:58:56;;;;;;;;;;;16.00;99.90;;;;;;5073687;28;19931;-39
2022/10/27 02:01:21;;;;;;;;;;;16.10;99.90;;;;;;5072967;28;20373;-43
2022/10/27 02:03:53;;;;;;;;;;;16.10;99.90;;;;;;5073901;28;19915;-34
2022/10/27 02:06:34;;;;;;;;;;;16.00;99.90;;;;;;5072326;28;19965;-34
2022/10/27 02:09:20;;;;;;;;;;;16.00;99.90;;;;;;5073077;28;19924;-33
2022/10/27 02:11:50;;;;;;;;;;;15.90;99.90;;;;;;5071925;28;20501;-42
2022/10/27 02:14:16;;;;;;;;;;;15.90;99.90;;;;;;5075670;28;20307;-53
2022/10/27 02:16:43;;;;;;;;;;;15.80;99.90;;;;;;5071113;28;19913;-39
2022/10/27 02:19:12;;;;;;;;;;;15.80;99.90;;;;;;5069519;28;19908;-43
2022/10/27 02:21:38;;;;;;;;;;;15.70;99.90;;;;;;5071625;28;19931;-37
2022/10/27 02:24:04;;;;;;;;;;;15.70;99.90;;;;;;5074239;28;19908;-36
2022/10/27 02:26:36;;;;;;;;;;;15.70;99.90;;;;;;5078859;28;19919;-33
2022/10/27 02:29:01;;;;;;;;;;;15.60;99.90;;;;;;5070952;28;20382;-45
2022/10/27 02:31:30;;;;;;;;;;;15.70;99.90;;;;;;5072595;28;19944;-45
2022/10/27 02:33:56;;;;;;;;;;;15.70;99.90;;;;;;5074287;28;19913;-41
2022/10/27 02:36:22;;;;;;;;;;;15.80;99.90;;;;;;5075579;28;19934;-40
2022/10/27 02:38:47;;;;;;;;;;;15.70;99.90;;;;;;5072859;28;19908;-41
2022/10/27 02:41:13;;;;;;;;;;;15.70;99.90;;;;;;5072814;28;19932;-42
2022/10/27 02:43:38;;;;;;;;;;;15.60;99.90;;;;;;5075022;28;19908;-43
2022/10/27 02:46:04;;;;;;;;;;;15.60;99.90;;;;;;5073488;28;19912;-37
2022/10/27 02:48:29;;;;;;;;;;;15.60;99.90;;;;;;5074820;28;19908;-42
2022/10/27 02:50:55;;;;;;;;;;;15.60;99.90;;;;;;5073460;28;19915;-41
2022/10/27 02:53:20;;;;;;;;;;;15.50;99.90;;;;;;5078416;28;19941;-42
2022/10/27 02:55:46;;;;;;;;;;;15.50;99.90;;;;;;5072310;28;19912;-40
2022/10/27 02:58:11;;;;;;;;;;;15.40;99.90;;;;;;5073503;28;19912;-45
2022/10/27 03:00:37;;;;;;;;;;;15.50;99.90;;;;;;5073504;28;19970;-42
2022/10/27 03:03:02;;;;;;;;;;;15.50;99.90;;;;;;5074002;28;19909;-41
2022/10/27 03:05:28;;;;;;;;;;;15.50;99.90;;;;;;5073302;28;20372;-59
2022/10/27 03:07:53;;;;;;;;;;;15.50;99.90;;;;;;5072614;28;19959;-42
2022/10/27 03:10:19;;;;;;;;;;;15.50;99.90;;;;;;5073307;28;20337;-41
2022/10/27 03:12:46;;;;;;;;;;;15.60;99.90;;;;;;5072807;28;19908;-41
2022/10/27 03:15:12;;;;;;;;;;;15.50;99.90;;;;;;5071835;28;20376;-44
2022/10/27 03:17:42;;;;;;;;;;;15.50;99.90;;;;;;5067275;28;20188;-44
2022/10/27 03:20:07;;;;;;;;;;;15.50;99.90;;;;;;5073749;28;19908;-39
2022/10/27 03:22:35;;;;;;;;;;;15.50;99.90;;;;;;5079335;28;19914;-41
2022/10/27 03:25:01;;;;;;;;;;;15.50;99.90;;;;;;5070895;28;19916;-34
2022/10/27 03:27:26;;;;;;;;;;;15.50;99.90;;;;;;5070736;28;20396;-32
2022/10/27 03:29:52;;;;;;;;;;;15.40;99.90;;;;;;5071974;28;19908;-35
2022/10/27 03:32:17;;;;;;;;;;;15.50;99.90;;;;;;5072388;28;20404;-32
2022/10/27 03:34:43;;;;;;;;;;;15.50;99.90;;;;;;5071236;28;19908;-38
2022/10/27 03:37:08;;;;;;;;;;;15.50;99.90;;;;;;5073064;28;19977;-32
2022/10/27 03:39:33;;;;;;;;;;;15.50;99.90;;;;;;5073197;28;19915;-43
2022/10/27 03:41:59;;;;;;;;;;;15.50;99.90;;;;;;5071979;28;20295;-33
2022/10/27 03:44:24;;;;;;;;;;;15.40;99.90;;;;;;5071996;28;19922;-37
2022/10/27 03:46:50;;;;;;;;;;;15.40;99.90;;;;;;5070990;28;20370;-33
2022/10/27 03:49:15;;;;;;;;;;;15.30;99.90;;;;;;5080099;28;19915;-38
2022/10/27 03:51:41;;;;;;;;;;;15.30;99.90;;;;;;5072235;28;19959;-34
2022/10/27 03:54:06;;;;;;;;;;;15.30;99.90;;;;;;5071541;28;19908;-43
2022/10/27 03:56:32;;;;;;;;;;;15.30;99.90;;;;;;5071751;28;19912;-41
2022/10/27 03:58:58;;;;;;;;;;;15.30;99.90;;;;;;5072121;28;19954;-42
2022/10/27 04:01:23;;;;;;;;;;;15.30;99.90;;;;;;5072817;28;19943;-41
2022/10/27 04:03:49;;;;;;;;;;;15.40;99.90;;;;;;5070034;28;19912;-39
2022/10/27 04:06:14;;;;;;;;;;;15.40;99.90;;;;;;5087592;28;19919;-41
2022/10/27 04:08:40;;;;;;;;;;;15.40;99.90;;;;;;5071877;28;20022;-42
2022/10/27 04:11:05;;;;;;;;;;;15.40;99.90;;;;;;5072247;28;20327;-42
2022/10/27 04:13:31;;;;;;;;;;;15.40;99.90;;;;;;5072556;28;19912;-47
2022/10/27 04:16:00;;;;;;;;;;;15.30;99.90;;;;;;5070452;28;20002;-42
2022/10/27 04:18:25;;;;;;;;;;;15.20;99.90;;;;;;5083908;28;19908;-43
2022/10/27 04:20:51;;;;;;;;;;;15.30;99.90;;;;;;5072401;28;20392;-41
2022/10/27 04:23:17;;;;;;;;;;;15.20;99.90;;;;;;5070683;28;19908;-41
2022/10/27 04:25:45;;;;;;;;;;;15.20;99.90;;;;;;5071461;28;19918;-46
2022/10/27 04:28:10;;;;;;;;;;;15.20;99.90;;;;;;5071204;28;19916;-42
2022/10/27 04:30:36;;;;;;;;;;;15.20;99.90;;;;;;5071404;28;20356;-40
2022/10/27 04:33:02;;;;;;;;;;;15.20;99.90;;;;;;5087998;28;19965;-36
2022/10/27 04:35:27;;;;;;;;;;;15.20;99.90;;;;;;5080899;28;19936;-45
2022/10/27 04:37:54;;;;;;;;;;;15.20;99.90;;;;;;5071596;28;19915;-38
2022/10/27 04:40:19;;;;;;;;;;;15.20;99.90;;;;;;5062159;28;19909;-35
2022/10/27 04:42:48;;;;;;;;;;;15.20;99.90;;;;;;5067245;28;19916;-41
2022/10/27 04:47:58;;;;;;;;;;;15.30;99.90;;;;;;5071767;28;19915;-44
2022/10/27 04:50:23;;;;;;;;;;;15.30;99.90;;;;;;5073790;28;20353;-43
2022/10/27 04:52:56;;;;;;;;;;;15.30;99.90;;;;;;5071790;28;19913;-40
2022/10/27 04:55:22;;;;;;;;;;;15.30;99.90;;;;;;5072951;28;20384;-42
2022/10/27 04:57:47;;;;;;;;;;;15.30;99.90;;;;;;5072151;28;19909;-43
2022/10/27 05:00:13;;;;;;;;;;;15.30;99.90;;;;;;5071120;28;20403;-49
2022/10/27 05:02:38;;;;;;;;;;;15.30;99.90;;;;;;5066493;28;19908;-40
2022/10/27 05:05:04;;;;;;;;;;;15.40;99.90;;;;;;5070592;28;19917;-36
2022/10/27 05:07:29;;;;;;;;;;;15.40;99.90;;;;;;5069906;28;19912;-41
2022/10/27 05:09:55;;;;;;;;;;;15.30;99.90;;;;;;5071663;28;19917;-43
2022/10/27 05:12:20;;;;;;;;;;;15.30;99.90;;;;;;5071600;28;19959;-43
2022/10/27 05:14:46;;;;;;;;;;;15.40;99.90;;;;;;5070280;28;19948;-40
2022/10/27 05:17:11;;;;;;;;;;;15.40;99.90;;;;;;5071575;28;19961;-42
2022/10/27 05:19:37;;;;;;;;;;;15.30;99.90;;;;;;5070804;28;19908;-41
2022/10/27 05:22:02;;;;;;;;;;;15.30;99.90;;;;;;5069800;28;19915;-42
2022/10/27 05:24:28;;;;;;;;;;;15.40;99.90;;;;;;5071097;28;20442;-40
2022/10/27 05:26:53;;;;;;;;;;;15.40;99.90;;;;;;5070602;28;19912;-40
2022/10/27 05:29:19;;;;;;;;;;;15.30;99.90;;;;;;5071769;28;20419;-39
2022/10/27 05:31:44;;;;;;;;;;;15.20;99.90;;;;;;5071533;28;20364;-40
2022/10/27 05:34:10;;;;;;;;;;;15.20;99.90;;;;;;5070406;28;20003;-45
2022/10/27 05:36:35;;;;;;;;;;;15.20;99.90;;;;;;5071953;28;19912;-40
2022/10/27 05:39:01;;;;;;;;;;;15.30;99.90;;;;;;5071434;28;19938;-35
2022/10/27 05:41:26;;;;;;;;;;;15.30;99.90;;;;;;5070728;28;19952;-41
2022/10/27 05:43:52;;;;;;;;;;;15.30;99.90;;;;;;5074118;28;19912;-51
2022/10/27 05:46:17;;;;;;;;;;;15.30;99.90;;;;;;5074556;28;19935;-58
2022/10/27 05:48:43;;;;;;;;;;;15.30;99.90;;;;;;5075409;28;19950;-53
2022/10/27 05:51:08;;;;;;;;;;;15.30;99.90;;;;;;5074459;28;19912;-40
2022/10/27 05:53:33;;;;;;;;;;;15.30;99.90;;;;;;5071979;28;19954;-42
2022/10/27 05:55:59;;;;;;;;;;;15.20;99.90;;;;;;5076274;28;19908;-41
2022/10/27 05:58:24;;;;;;;;;;;15.20;99.90;;;;;;5078903;28;19931;-41
2022/10/27 06:00:50;;;;;;;;;;;15.20;99.90;;;;;;5074314;28;19915;-40
2022/10/27 06:03:20;;;;;;;;;;;15.20;99.90;;;;;;5074371;28;19995;-42
2022/10/27 06:05:46;;;;;;;;;;;15.10;99.90;;;;;;5073246;28;19912;-40
2022/10/27 06:08:11;;;;;;;;;;;15.10;99.90;;;;;;5080840;28;20273;-39
2022/10/27 06:10:36;;;;;;;;;;;15.10;99.90;;;;;;5074752;28;19909;-42
2022/10/27 06:13:02;;;;;;;;;;;15.10;99.90;;;;;;5075625;28;19904;-43
2022/10/27 06:15:29;;;;;;;;;;;15.10;99.90;;;;;;5075428;28;19924;-40
2022/10/27 06:17:54;;;;;;;;;;;15.20;99.90;;;;;;5075101;28;19904;-41
2022/10/27 06:20:20;;;;;;;;;;;15.10;99.90;;;;;;5079021;28;20283;-42
2022/10/27 06:22:46;;;;;;;;;;;15.00;99.90;;;;;;5077212;28;19909;-40
2022/10/27 06:25:11;;;;;;;;;;;15.10;99.90;;;;;;5074366;28;19919;-45
2022/10/27 06:27:37;;;;;;;;;;;15.10;99.90;;;;;;5074220;28;19936;-35
2022/10/27 06:30:02;;;;;;;;;;;15.10;99.90;;;;;;5074097;28;19908;-35
2022/10/27 06:32:28;;;;;;;;;;;15.00;99.90;;;;;;5074460;28;19908;-35
2022/10/27 06:34:53;;;;;;;;;;;15.00;99.90;;;;;;5073933;28;20360;-38
2022/10/27 06:37:19;;;;;;;;;;;15.00;99.90;;;;;;5073241;28;19915;-35
2022/10/27 06:39:45;;;;;;;;;;;15.00;99.90;;;;;;5072411;28;20367;-33
2022/10/27 06:42:11;;;;;;;;;;;15.00;99.90;;;;;;5072404;28;20107;-34
2022/10/27 06:44:36;;;;;;;;;;;15.00;99.90;;;;;;5074191;28;20353;-35
2022/10/27 06:47:02;;;;;;;;;;;14.90;99.90;;;;;;5073060;28;19912;-33
2022/10/27 06:49:27;;;;;;;;;;;14.90;99.90;;;;;;5072414;28;19908;-34
2022/10/27 06:51:54;;;;;;;;;;;15.00;99.90;;;;;;5084496;28;19908;-36
2022/10/27 06:54:19;;;;;;;;;;;15.00;99.90;;;;;;5067746;28;20280;-40
2022/10/27 06:56:45;;;;;;;;;;;15.00;99.90;;;;;;5069890;28;19957;-33
2022/10/27 06:59:10;;;;;;;;;;;14.90;99.90;;;;;;5071479;28;20056;-40
2022/10/27 07:01:36;;;;;;;;;;;15.00;99.90;;;;;;5068588;28;19920;-43
2022/10/27 07:04:01;;;;;;;;;;;15.00;99.90;;;;;;5073732;28;19909;-41
2022/10/27 07:06:27;;;;;;;;;;;15.00;99.90;;;;;;5060946;28;19909;-40
2022/10/27 07:08:54;;;;;;;;;;;14.90;99.90;;;;;;5072890;28;19920;-45
2022/10/27 07:11:19;;;;;;;;;;;15.00;99.90;;;;;;5071431;28;19970;-41
2022/10/27 07:13:45;;;;;;;;;;;14.90;99.90;;;;;;5077562;28;19930;-43
2022/10/27 07:16:11;;;;;;;;;;;15.00;99.90;;;;;;5071242;28;19916;-36
2022/10/27 07:18:37;;;;;;;;;;;15.00;99.90;;;;;;5070715;28;19914;-44
2022/10/27 07:21:03;;;;;;;;;;;15.00;99.90;;;;;;5073343;28;19996;-43
2022/10/27 07:23:29;;;;;;;;;;;14.90;99.90;;;;;;5072218;28;19973;-44
2022/10/27 07:25:55;;;;;;;;;;;14.90;99.90;;;;;;5073127;28;19912;-39
2022/10/27 07:28:20;;;;;;;;;;;15.00;99.90;;;;;;5067074;28;20430;-41
2022/10/27 07:30:47;;;;;;;;;;;15.00;99.90;;;;;;5073229;28;20347;-68
2022/10/27 07:33:12;;;;;;;;;;;15.00;99.90;;;;;;5071611;28;19908;-42
2022/10/27 07:35:38;;;;;;;;;;;15.00;99.90;;;;;;5070760;28;19973;-41
2022/10/27 07:38:04;;;;;;;;;;;15.10;99.90;;;;;;5072938;28;19908;-44
2022/10/27 07:40:29;;;;;;;;;;;15.10;99.90;;;;;;5071970;28;19909;-41
2022/10/27 07:42:56;;;;;;;;;;;15.10;99.90;;;;;;5073486;28;20368;-41
2022/10/27 07:45:22;;;;;;;;;;;15.10;99.90;;;;;;5070633;28;19920;-39
2022/10/27 07:47:49;;;;;;;;;;;15.10;99.90;;;;;;5073606;28;19954;-34
2022/10/27 07:50:16;;;;;;;;;;;15.20;99.90;;;;;;5084122;28;20368;-34
2022/10/27 07:52:42;;;;;;;;;;;15.20;99.90;;;;;;5066067;28;19920;-43
2022/10/27 07:55:08;;;;;;;;;;;15.20;99.90;;;;;;5072473;28;20272;-36
2022/10/27 07:57:33;;;;;;;;;;;15.30;99.90;;;;;;5070109;28;19909;-34
2022/10/27 07:59:59;;;;;;;;;;;15.30;99.90;;;;;;5071142;28;19916;-35
2022/10/27 08:02:24;;;;;;;;;;;15.50;99.90;;;;;;5070868;28;19908;-36
2022/10/27 08:04:50;;;;;;;;;;;15.50;99.90;;;;;;5071231;28;20004;-37
2022/10/27 08:07:15;;;;;;;;;;;15.60;99.90;;;;;;5064494;28;19919;-36
2022/10/27 08:09:42;;;;;;;;;;;15.60;99.90;;;;;;5069277;28;19924;-42
2022/10/27 08:12:08;;;;;;;;;;;15.60;99.90;;;;;;5070755;28;19998;-45
2022/10/27 08:14:33;;;;;;;;;;;15.70;99.90;;;;;;5064733;28;20416;-39
2022/10/27 08:16:59;;;;;;;;;;;15.80;99.90;;;;;;5067270;28;19908;-41
2022/10/27 08:19:24;;;;;;;;;;;15.80;99.90;;;;;;5068683;28;19995;-41
2022/10/27 08:21:50;;;;;;;;;;;15.90;99.90;;;;;;5072214;28;19995;-44
2022/10/27 08:24:16;;;;;;;;;;;15.90;99.90;;;;;;5071078;28;20331;-46
2022/10/27 08:26:41;;;;;;;;;;;16.00;99.90;;;;;;5058133;28;20391;-42
2022/10/27 08:29:07;;;;;;;;;;;16.10;99.90;;;;;;5058035;28;20295;-42
2022/10/27 08:31:35;;;;;;;;;;;16.10;99.90;;;;;;5067049;28;20297;-40
2022/10/27 08:34:01;;;;;;;;;;;16.30;99.90;;;;;;5067544;28;19908;-40
2022/10/27 08:36:26;;;;;;;;;;;16.40;99.90;;;;;;5067709;28;20384;-45
2022/10/27 08:38:52;;;;;;;;;;;16.50;99.90;;;;;;5067540;28;19916;-47
2022/10/27 08:41:22;;;;;;;;;;;16.60;99.90;;;;;;5098808;28;20005;-43
2022/10/27 08:43:48;;;;;;;;;;;16.60;99.90;;;;;;5064400;28;19909;-40
2022/10/27 08:46:19;;;;;;;;;;;16.70;99.90;;;;;;5062301;28;19912;-42
2022/10/27 08:48:44;;;;;;;;;;;16.70;99.90;;;;;;5064698;28;19912;-43
2022/10/27 08:51:15;;;;;;;;;;;16.80;99.90;;;;;;5065074;28;20451;-43
2022/10/27 08:53:43;;;;;;;;;;;16.80;99.90;;;;;;5067898;28;19923;-43
2022/10/27 08:56:09;;;;;;;;;;;16.90;99.90;;;;;;5070991;28;20363;-43
2022/10/27 08:58:36;;;;;;;;;;;17.00;99.90;;;;;;5079989;28;20359;-43
2022/10/27 09:01:17;;;;;;;;;;;17.10;99.90;;;;;;5073097;28;19962;-42
2022/10/27 09:04:01;;;;;;;;;;;17.20;99.90;;;;;;5074629;28;19912;-45
2022/10/27 09:06:31;;;;;;;;;;;17.30;99.90;;;;;;5071290;28;19919;-44
2022/10/27 09:09:09;;;;;;;;;;;17.40;99.90;;;;;;5065850;28;20010;-43
2022/10/27 09:11:35;;;;;;;;;;;17.50;99.90;;;;;;5064746;28;20264;-48
2022/10/27 09:14:13;;;;;;;;;;;17.50;99.90;;;;;;5060896;28;19914;-40
2022/10/27 09:16:47;;;;;;;;;;;17.50;99.90;;;;;;5064041;28;19957;-37
2022/10/27 09:19:22;;;;;;;;;;;17.60;99.90;;;;;;5067763;28;19908;-41
2022/10/27 09:21:48;;;;;;;;;;;17.60;99.90;;;;;;5067258;28;20452;-42
2022/10/27 09:24:16;;;;;;;;;;;17.70;99.90;;;;;;5070083;28;19920;-40
2022/10/27 09:26:42;;;;;;;;;;;17.70;99.90;;;;;;5066323;28;19927;-36
2022/10/27 09:29:21;;;;;;;;;;;17.70;99.90;;;;;;5066550;28;20007;-43
2022/10/27 09:31:59;;;;;;;;;;;17.70;99.90;;;;;;5066370;28;20383;-42
2022/10/27 09:34:31;;;;;;;;;;;17.70;99.90;;;;;;5067748;28;20352;-37
2022/10/27 09:36:56;;;;;;;;;;;17.80;99.90;;;;;;5067244;28;20407;-38
2022/10/27 09:39:22;;;;;;;;;;;17.80;99.90;;;;;;5071161;28;19999;-37
2022/10/27 09:41:48;;;;;;;;;;;17.70;99.90;;;;;;5071316;28;19955;-41
2022/10/27 09:44:21;;;;;;;;;;;17.80;99.90;;;;;;5074436;28;19909;-38
2022/10/27 09:46:51;;;;;;;;;;;17.80;99.90;;;;;;5074779;28;19978;-33
2022/10/27 09:49:17;;;;;;;;;;;17.90;99.90;;;;;;5076095;28;20394;-35
2022/10/27 09:51:45;;;;;;;;;;;18.00;99.90;;;;;;5074295;28;20330;-33
2022/10/27 09:54:29;;;;;;;;;;;18.10;99.90;;;;;;5084031;28;19961;-34
2022/10/27 09:57:00;;;;;;;;;;;18.10;99.90;;;;;;5087883;28;19915;-35
2022/10/27 09:59:26;;;;;;;;;;;18.10;99.90;;;;;;5066538;28;19962;-39
2022/10/27 10:01:58;;;;;;;;;;;18.20;99.90;;;;;;5060455;28;20376;-33
2022/10/27 10:04:29;;;;;;;;;;;18.30;99.90;;;;;;5055601;28;19971;-35
2022/10/27 10:06:57;;;;;;;;;;;18.40;99.90;;;;;;5072599;28;19912;-48
2022/10/27 10:09:24;;;;;;;;;;;18.50;99.90;;;;;;5071063;28;20364;-35
2022/10/27 10:11:50;;;;;;;;;;;18.50;99.90;;;;;;5074298;28;19951;-33
2022/10/27 10:14:20;;;;;;;;;;;18.60;99.90;;;;;;5071647;28;19959;-34
2022/10/27 10:16:46;;;;;;;;;;;18.60;99.90;;;;;;5074429;28;19914;-38
2022/10/27 10:19:21;;;;;;;;;;;18.70;99.90;;;;;;5071328;28;20446;-35
2022/10/27 10:21:48;;;;;;;;;;;18.70;99.90;;;;;;5073214;28;20360;-34
2022/10/27 10:24:18;;;;;;;;;;;18.70;99.90;;;;;;5074601;28;19908;-51
2022/10/27 10:26:45;;;;;;;;;;;18.70;99.90;;;;;;5072324;28;20328;-42
2022/10/27 10:29:16;;;;;;;;;;;18.70;99.90;;;;;;5069434;28;19915;-34
2022/10/27 10:31:42;;;;;;;;;;;18.80;99.90;;;;;;5064944;28;19916;-34
2022/10/27 10:34:23;;;;;;;;;;;18.70;99.90;;;;;;5063146;28;19954;-39
2022/10/27 10:36:49;;;;;;;;;;;18.70;99.90;;;;;;5065490;28;19914;-32
2022/10/27 10:39:22;;;;;;;;;;;18.90;99.90;;;;;;5068422;28;19994;-33
2022/10/27 10:42:06;;;;;;;;;;;18.90;99.90;;;;;;5070408;28;20015;-38
2022/10/27 10:44:32;;;;;;;;;;;18.90;99.90;;;;;;5068070;28;20388;-35
2022/10/27 10:46:58;;;;;;;;;;;18.90;99.90;;;;;;5068193;28;19919;-36
2022/10/27 10:49:25;;;;;;;;;;;18.90;99.90;;;;;;5073072;28;19997;-39
2022/10/27 10:51:52;;;;;;;;;;;19.00;99.90;;;;;;5073065;28;19985;-35
2022/10/27 10:54:21;;;;;;;;;;;18.90;99.90;;;;;;5074653;28;19908;-36
2022/10/27 10:56:50;;;;;;;;;;;19.00;99.90;;;;;;5074181;28;19962;-36
2022/10/27 10:59:17;;;;;;;;;;;19.10;99.90;;;;;;5074643;28;20287;-36
2022/10/27 11:01:53;;;;;;;;;;;19.20;99.90;;;;;;5074512;28;19912;-33
2022/10/27 11:04:22;;;;;;;;;;;19.30;99.90;;;;;;5074569;28;19909;-33
2022/10/27 11:07:04;;;;;;;;;;;19.20;99.90;;;;;;5074397;28;19919;-32
2022/10/27 11:09:36;;;;;;;;;;;19.20;99.90;;;;;;5074283;28;20498;-33
2022/10/27 11:12:02;;;;;;;;;;;19.20;99.90;;;;;;5074418;28;19958;-33
2022/10/27 11:14:28;;;;;;;;;;;19.30;99.90;;;;;;5074316;28;20387;-33
2022/10/27 11:16:55;;;;;;;;;;;19.30;99.90;;;;;;5074267;28;19956;-33
2022/10/27 11:19:21;;;;;;;;;;;19.40;99.90;;;;;;5074205;28;19912;-32
2022/10/27 11:21:53;;;;;;;;;;;19.40;99.90;;;;;;5072932;28;20280;-40
2022/10/27 11:24:44;;;;;;;;;;;19.40;99.90;;;;;;5074250;28;19915;-52
2022/10/27 11:27:15;;;;;;;;;;;19.40;99.90;;;;;;5072412;28;19919;-36
2022/10/27 11:29:46;;;;;;;;;;;19.50;99.90;;;;;;5074088;28;19919;-35
2022/10/27 11:32:19;;;;;;;;;;;19.60;99.90;;;;;;5073919;28;20007;-34
2022/10/27 11:35:05;;;;;;;;;;;19.50;99.90;;;;;;5072518;28;19932;-35
2022/10/27 11:37:37;;;;;;;;;;;19.50;99.90;;;;;;5068416;28;20291;-36
2022/10/27 11:40:15;;;;;;;;;;;19.50;99.90;;;;;;5071014;28;20368;-36
2022/10/27 11:43:02;;;;;;;;;;;19.50;99.90;;;;;;5071597;28;19908;-35
2022/10/27 11:45:30;;;;;;;;;;;19.60;99.90;;;;;;5071827;28;19920;-35
2022/10/27 11:48:02;;;;;;;;;;;19.60;99.90;;;;;;5071638;28;20380;-36
2022/10/27 11:50:46;;;;;;;;;;;19.60;99.90;;;;;;5072607;28;19912;-36
2022/10/27 11:53:12;;;;;;;;;;;19.70;99.90;;;;;;5072392;28;19908;-32
2022/10/27 11:58:54;;;;;;;;;;;19.80;99.90;;;;;;5071895;28;19919;-61
2022/10/27 12:01:19;;;;;;;;;;;19.80;99.90;;;;;;5058874;28;19952;-33
2022/10/27 12:03:51;;;;;;;;;;;19.80;99.90;;;;;;5080696;28;20257;-33
2022/10/27 12:06:46;;;;;;;;;;;19.80;99.90;;;;;;5079044;28;19916;-33
2022/10/27 12:09:20;;;;;;;;;;;19.80;99.90;;;;;;5065645;28;20284;-44
2022/10/27 12:11:54;;;;;;;;;;;19.70;99.90;;;;;;5073586;28;19908;-42
2022/10/27 12:14:23;;;;;;;;;;;19.70;99.90;;;;;;5074009;28;19954;-46
2022/10/27 12:17:00;;;;;;;;;;;19.80;99.90;;;;;;5073430;28;19955;-44
2022/10/27 12:19:37;;;;;;;;;;;19.90;99.90;;;;;;5072988;28;20003;-44
2022/10/27 12:22:11;;;;;;;;;;;19.90;99.90;;;;;;5073408;28;20010;-42
2022/10/27 12:24:52;;;;;;;;;;;19.90;99.90;;;;;;5072050;28;20265;-44
2022/10/27 12:27:24;;;;;;;;;;;20.00;99.90;;;;;;5076260;28;19919;-43
2022/10/27 12:29:51;;;;;;;;;;;20.10;99.90;;;;;;5065708;28;20391;-42
2022/10/27 12:32:21;;;;;;;;;;;20.10;99.90;;;;;;5092475;28;19916;-45
2022/10/27 12:34:49;;;;;;;;;;;20.20;99.90;;;;;;5079482;28;19908;-45
2022/10/27 12:37:19;;;;;;;;;;;20.20;99.90;;;;;;5077569;28;19955;-42
2022/10/27 12:40:03;;;;;;;;;;;20.30;99.90;;;;;;5082014;28;19969;-41
2022/10/27 12:42:29;;;;;;;;;;;20.20;99.90;;;;;;5077924;28;20375;-43
2022/10/27 12:44:54;;;;;;;;;;;20.30;99.90;;;;;;5082942;28;19908;-41
2022/10/27 12:47:38;;;;;;;;;;;20.30;99.90;;;;;;5083185;28;19912;-41
2022/10/27 12:50:29;;;;;;;;;;;20.30;99.90;;;;;;5092376;28;19908;-43
2022/10/27 12:52:59;;;;;;;;;;;20.30;99.90;;;;;;5071994;28;19951;-44
2022/10/27 12:55:30;;;;;;;;;;;20.30;99.90;;;;;;5077154;28;19930;-42
2022/10/27 12:57:58;;;;;;;;;;;20.20;99.90;;;;;;5092245;28;20419;-42
2022/10/27 13:00:24;;;;;;;;;;;20.20;99.90;;;;;;5086914;28;19908;-44
2022/10/27 13:03:08;;;;;;;;;;;20.30;99.90;;;;;;5076963;28;19915;-41
2022/10/27 13:05:52;;;;;;;;;;;20.30;99.90;;;;;;5089461;28;19913;-42
2022/10/27 13:08:41;;;;;;;;;;;20.30;99.90;;;;;;5096926;28;19908;-42
2022/10/27 13:11:10;;;;;;;;;;;20.30;99.90;;;;;;5073432;28;20376;-42
2022/10/27 13:13:38;;;;;;;;;;;20.30;99.90;;;;;;5076286;28;20008;-44
2022/10/27 13:16:08;;;;;;;;;;;20.30;99.90;;;;;;5076187;28;20025;-44
2022/10/27 13:18:36;;;;;;;;;;;20.30;99.90;;;;;;5076248;28;19915;-36
2022/10/27 13:21:11;;;;;;;;;;;20.30;99.90;;;;;;5076503;28;19956;-42
2022/10/27 13:23:58;;;;;;;;;;;20.30;99.90;;;;;;5074834;28;20379;-43
2022/10/27 13:26:33;;;;;;;;;;;20.40;99.90;;;;;;5076684;28;19916;-43
2022/10/27 13:29:02;;;;;;;;;;;20.40;99.90;;;;;;5084687;28;20001;-42
2022/10/27 13:31:27;;;;;;;;;;;20.40;99.90;;;;;;5076683;28;19962;-43
2022/10/27 13:34:01;;;;;;;;;;;20.40;99.90;;;;;;5076074;28;19908;-41
2022/10/27 13:36:26;;;;;;;;;;;20.40;99.90;;;;;;5064713;28;19916;-46
2022/10/27 13:39:10;;;;;;;;;;;20.40;99.90;;;;;;5056304;28;20364;-42
2022/10/27 13:41:45;;;;;;;;;;;20.40;99.90;;;;;;5067225;28;19908;-42
2022/10/27 13:44:23;;;;;;;;;;;20.40;99.90;;;;;;5080841;28;20292;-44
2022/10/27 13:47:04;;;;;;;;;;;20.40;99.90;;;;;;5064624;28;19955;-42
2022/10/27 13:49:39;;;;;;;;;;;20.40;99.90;;;;;;5076150;28;19904;-42
2022/10/27 13:52:16;;;;;;;;;;;20.50;99.90;;;;;;5075482;28;20300;-45
2022/10/27 13:54:47;;;;;;;;;;;20.60;99.90;;;;;;5076366;28;20403;-45
2022/10/27 13:57:31;;;;;;;;;;;20.70;99.90;;;;;;5075219;28;20360;-46
2022/10/27 14:00:00;;;;;;;;;;;20.80;99.90;;;;;;5079970;28;19962;-43
2022/10/27 14:02:32;;;;;;;;;;;20.90;99.90;;;;;;5078628;28;20356;-46
2022/10/27 14:05:01;;;;;;;;;;;21.10;99.90;;;;;;5055636;28;19905;-41
2022/10/27 14:07:27;;;;;;;;;;;21.20;99.90;;;;;;5074650;28;20356;-43
2022/10/27 14:09:53;;;;;;;;;;;21.20;99.90;;;;;;5074051;28;19916;-42
2022/10/27 14:12:25;;;;;;;;;;;21.20;99.90;;;;;;5075765;28;19999;-44
2022/10/27 14:14:52;;;;;;;;;;;21.20;99.90;;;;;;5077596;28;19908;-42
2022/10/27 14:17:21;;;;;;;;;;;21.20;99.90;;;;;;5075552;28;19904;-43
2022/10/27 14:19:58;;;;;;;;;;;21.20;99.90;;;;;;5074942;28;19916;-46
2022/10/27 14:22:26;;;;;;;;;;;21.10;99.90;;;;;;5074768;28;19908;-45
2022/10/27 14:24:56;;;;;;;;;;;21.10;99.90;;;;;;5075452;28;19911;-44
2022/10/27 14:27:23;;;;;;;;;;;21.10;99.90;;;;;;5075348;28;19919;-40
2022/10/27 14:29:49;;;;;;;;;;;21.20;99.90;;;;;;5077481;28;19908;-45
2022/10/27 14:32:21;;;;;;;;;;;21.10;99.90;;;;;;5075334;28;19905;-44
2022/10/27 14:34:47;;;;;;;;;;;21.30;99.90;;;;;;5075183;28;20394;-46